createdAt,value
2019-03-03T00:01:58.246Z,5.00
2019-03-03T00:04:26.942Z,5.05
2019-03-03T00:06:55.596Z,5.05
2019-03-03T00:09:24.223Z,5.09
2019-03-03T00:11:52.972Z,5.09
2019-03-03T00:14:21.606Z,5.09
2019-03-03T00:16:50.291Z,5.11
2019-03-03T00:19:19.039Z,5.16
2019-03-03T00:22:06.974Z,5.17
2019-03-03T00:24:35.507Z,5.16
2019-03-03T00:27:04.193Z,5.21
2019-03-03T00:29:32.818Z,5.19
2019-03-03T00:32:01.380Z,5.17
2019-03-03T00:34:29.940Z,5.18
2019-03-03T00:40:06.726Z,5.22
2019-03-03T00:45:50.506Z,5.28
2019-03-03T00:48:38.261Z,5.29
2019-03-03T00:51:25.923Z,5.33
2019-03-03T00:54:13.659Z,5.29
2019-03-03T00:59:50.396Z,5.39
2019-03-03T01:05:47.979Z,5.41
2019-03-03T01:08:35.935Z,5.50
2019-03-03T01:11:23.706Z,5.49
2019-03-03T01:19:25.976Z,5.54
2019-03-03T01:27:19.330Z,5.55
2019-03-03T01:29:47.893Z,5.51
2019-03-03T01:32:16.400Z,5.54
2019-03-03T01:34:44.882Z,5.52
2019-03-03T01:37:13.547Z,5.50
2019-03-03T01:39:42.086Z,5.46
2019-03-03T01:42:11.027Z,5.48
2019-03-03T01:44:39.470Z,5.48
2019-03-03T01:49:43.275Z,5.51
2019-03-03T01:52:11.851Z,5.54
2019-03-03T01:54:40.409Z,5.56
2019-03-03T01:57:09.035Z,5.58
2019-03-03T01:59:38.023Z,5.61
2019-03-03T02:02:06.436Z,5.60
2019-03-03T02:04:35.061Z,5.59
2019-03-03T02:07:03.942Z,5.61
2019-03-03T02:12:08.173Z,5.63
2019-03-03T02:14:36.790Z,5.67
2019-03-03T02:19:54.585Z,5.67
2019-03-03T02:22:23.134Z,5.67
2019-03-03T02:24:51.784Z,5.69
2019-03-03T02:27:20.474Z,5.68
2019-03-03T02:29:49.051Z,5.69
2019-03-03T02:32:17.680Z,5.77
2019-03-03T02:34:46.188Z,5.79
2019-03-03T02:37:14.665Z,5.82
2019-03-03T02:39:43.255Z,5.80
2019-03-03T02:42:11.986Z,5.81
2019-03-03T02:44:40.633Z,5.82
2019-03-03T02:47:49.113Z,5.78
2019-03-03T02:50:17.685Z,5.79
2019-03-03T02:53:26.154Z,5.79
2019-03-03T02:55:54.795Z,5.79
2019-03-03T02:58:23.359Z,5.82
2019-03-03T03:03:41.097Z,5.83
2019-03-03T03:06:29.097Z,5.86
2019-03-03T03:09:16.735Z,5.84
2019-03-03T03:12:04.380Z,5.85
2019-03-03T03:14:52.070Z,5.86
2019-03-03T03:20:18.823Z,5.89
2019-03-03T03:25:42.051Z,5.92
2019-03-03T03:28:29.785Z,5.94
2019-03-03T03:31:17.415Z,5.97
2019-03-03T03:34:05.090Z,5.98
2019-03-03T03:36:52.788Z,6.01
2019-03-03T03:39:40.508Z,6.02
2019-03-03T03:45:17.252Z,6.09
2019-03-03T03:50:54.007Z,6.13
2019-03-03T03:53:41.956Z,6.16
2019-03-03T03:56:29.671Z,6.15
2019-03-03T03:59:17.340Z,6.15
2019-03-03T04:04:44.113Z,6.17
2019-03-03T04:07:31.747Z,6.18
2019-03-03T04:13:08.518Z,6.23
2019-03-03T04:15:56.137Z,6.24
2019-03-03T04:18:44.109Z,6.29
2019-03-03T04:24:20.884Z,6.33
2019-03-03T04:32:36.439Z,6.45
2019-03-03T04:35:44.938Z,6.47
2019-03-03T04:38:32.619Z,6.49
2019-03-03T04:41:20.354Z,6.51
2019-03-03T04:44:08.028Z,6.54
2019-03-03T04:46:55.716Z,6.59
2019-03-03T04:49:43.394Z,6.60
2019-03-03T04:55:06.541Z,6.66
2019-03-03T04:57:54.268Z,6.67
2019-03-03T05:03:31.088Z,6.76
2019-03-03T05:09:07.872Z,6.84
2019-03-03T05:12:34.161Z,6.84
2019-03-03T05:15:21.757Z,6.87
2019-03-03T05:23:11.180Z,6.94
2019-03-03T05:25:40.002Z,6.97
2019-03-03T05:28:08.648Z,6.97
2019-03-03T05:30:37.247Z,7.00
2019-03-03T05:33:06.166Z,7.03
2019-03-03T05:35:34.740Z,7.04
2019-03-03T05:38:03.370Z,7.02
2019-03-03T05:40:31.946Z,7.06
2019-03-03T05:43:00.522Z,7.06
2019-03-03T05:45:29.120Z,7.08
2019-03-03T05:47:57.649Z,7.08
2019-03-03T05:50:26.247Z,7.11
2019-03-03T05:52:55.053Z,7.12
2019-03-03T05:55:23.726Z,7.14
2019-03-03T05:57:52.637Z,7.15
2019-03-03T06:00:21.267Z,7.16
2019-03-03T06:02:50.215Z,7.19
2019-03-03T06:05:18.844Z,7.22
2019-03-03T06:07:47.383Z,7.25
2019-03-03T06:10:15.995Z,7.26
2019-03-03T06:12:44.956Z,7.29
2019-03-03T06:18:04.209Z,7.34
2019-03-03T06:20:32.996Z,7.40
2019-03-03T06:23:01.675Z,7.45
2019-03-03T06:25:30.566Z,7.48
2019-03-03T06:27:59.413Z,7.51
2019-03-03T06:30:28.105Z,7.54
2019-03-03T06:33:36.750Z,7.59
2019-03-03T06:36:05.513Z,7.63
2019-03-03T06:38:34.132Z,7.69
2019-03-03T06:41:03.117Z,7.75
2019-03-03T06:43:31.846Z,7.80
2019-03-03T06:46:00.847Z,7.88
2019-03-03T06:51:38.301Z,7.94
2019-03-03T06:54:07.101Z,8.02
2019-03-03T06:56:35.717Z,8.08
2019-03-03T06:59:04.337Z,8.13
2019-03-03T07:01:32.878Z,8.17
2019-03-03T07:04:01.423Z,8.22
2019-03-03T07:06:30.056Z,8.28
2019-03-03T07:08:58.702Z,8.32
2019-03-03T07:11:27.314Z,8.34
2019-03-03T07:13:55.977Z,8.40
2019-03-03T07:16:26.327Z,8.47
2019-03-03T07:18:54.759Z,8.49
2019-03-03T07:21:23.652Z,8.55
2019-03-03T07:23:52.140Z,8.60
2019-03-03T07:26:20.784Z,8.66
2019-03-03T07:28:49.320Z,8.69
2019-03-03T07:31:17.900Z,8.74
2019-03-03T07:36:35.599Z,8.82
2019-03-03T07:39:44.044Z,8.85
2019-03-03T07:42:12.628Z,8.88
2019-03-03T07:44:41.241Z,8.90
2019-03-03T07:47:09.788Z,8.94
2019-03-03T07:49:38.555Z,9.05
2019-03-03T07:52:07.253Z,9.09
2019-03-03T07:54:35.826Z,9.14
2019-03-03T07:57:04.307Z,9.13
2019-03-03T07:59:33.019Z,9.17
2019-03-03T08:02:01.741Z,9.21
2019-03-03T08:04:30.489Z,9.27
2019-03-03T08:06:59.108Z,9.39
2019-03-03T08:09:28.180Z,9.46
2019-03-03T08:11:56.794Z,9.49
2019-03-03T08:14:25.413Z,9.52
2019-03-03T08:16:53.963Z,9.59
2019-03-03T08:19:22.965Z,9.67
2019-03-03T08:21:51.606Z,9.74
2019-03-03T08:24:20.235Z,9.83
2019-03-03T08:26:48.785Z,9.86
2019-03-03T08:29:17.371Z,9.88
2019-03-03T08:31:46.002Z,9.96
2019-03-03T08:34:14.557Z,10.04
2019-03-03T08:36:43.114Z,10.09
2019-03-03T08:39:11.876Z,10.17
2019-03-03T08:50:21.668Z,10.13
2019-03-03T08:53:09.713Z,10.13
2019-03-03T08:55:57.524Z,10.18
2019-03-03T08:58:45.189Z,10.22
2019-03-03T09:01:32.872Z,10.23
2019-03-03T09:04:20.565Z,10.20
2019-03-03T09:12:32.581Z,10.09
2019-03-03T09:15:20.304Z,10.08
2019-03-03T09:18:08.130Z,10.07
2019-03-03T09:23:52.066Z,10.05
2019-03-03T09:26:39.769Z,10.11
2019-03-03T09:29:27.468Z,10.12
2019-03-03T09:32:15.237Z,10.16
2019-03-03T09:35:02.970Z,10.19
2019-03-03T09:37:50.702Z,10.22
2019-03-03T09:40:38.377Z,10.27
2019-03-03T09:53:56.148Z,10.53
2019-03-03T10:02:07.962Z,10.54
2019-03-03T10:04:55.905Z,10.56
2019-03-03T10:07:43.559Z,10.55
2019-03-03T10:10:52.030Z,10.55
2019-03-03T10:13:39.745Z,10.57
2019-03-03T10:16:27.565Z,10.60
2019-03-03T10:19:15.294Z,10.58
2019-03-03T10:22:02.969Z,10.61
2019-03-03T10:24:50.667Z,10.62
2019-03-03T10:30:46.852Z,10.60
2019-03-03T10:36:23.647Z,10.68
2019-03-03T10:42:00.429Z,10.71
2019-03-03T10:47:23.360Z,10.82
2019-03-03T10:50:11.070Z,10.81
2019-03-03T10:52:58.677Z,10.71
2019-03-03T10:55:46.468Z,10.66
2019-03-03T10:58:34.076Z,10.68
2019-03-03T11:01:21.955Z,10.67
2019-03-03T11:09:54.921Z,10.96
2019-03-03T11:12:42.613Z,10.92
2019-03-03T11:15:51.128Z,11.05
2019-03-03T11:18:38.748Z,11.06
2019-03-03T11:21:26.405Z,11.08
2019-03-03T11:24:14.024Z,11.11
2019-03-03T11:27:01.810Z,11.09
2019-03-03T11:32:24.777Z,11.21
2019-03-03T11:35:12.529Z,11.21
2019-03-03T11:38:00.286Z,11.24
2019-03-03T11:43:37.101Z,11.24
2019-03-03T11:46:24.746Z,11.26
2019-03-03T11:51:47.914Z,11.29
2019-03-03T11:54:35.609Z,11.21
2019-03-03T12:00:12.450Z,11.12
2019-03-03T12:03:00.167Z,11.05
2019-03-03T12:08:27.049Z,11.03
2019-03-03T12:14:09.244Z,10.96
2019-03-03T12:17:16.579Z,10.89
2019-03-03T12:20:04.313Z,10.88
2019-03-03T12:33:39.256Z,10.85
2019-03-03T12:39:17.216Z,10.84
2019-03-03T12:42:04.979Z,10.90
2019-03-03T12:52:52.120Z,10.81
2019-03-03T12:58:28.915Z,11.00
2019-03-03T13:09:19.858Z,10.99
2019-03-03T13:12:07.587Z,10.94
2019-03-03T13:14:56.488Z,10.97
2019-03-03T13:20:40.928Z,10.90
2019-03-03T13:28:43.197Z,10.92
2019-03-03T13:31:31.021Z,11.01
2019-03-03T13:36:54.621Z,11.10
2019-03-03T13:39:42.495Z,11.13
2019-03-03T13:48:17.738Z,11.20
2019-03-03T13:53:44.147Z,11.24
2019-03-03T13:56:12.899Z,11.32
2019-03-03T13:58:41.464Z,11.31
2019-03-03T14:01:10.463Z,11.38
2019-03-03T14:03:39.061Z,11.42
2019-03-03T14:06:07.940Z,11.43
2019-03-03T14:08:37.019Z,11.42
2019-03-03T14:14:06.132Z,11.47
2019-03-03T14:16:34.876Z,11.44
2019-03-03T14:19:03.428Z,11.40
2019-03-03T14:21:32.282Z,11.40
2019-03-03T14:24:00.924Z,11.41
2019-03-03T14:26:29.468Z,11.35
2019-03-03T14:28:58.118Z,11.38
2019-03-03T14:31:26.699Z,11.35
2019-03-03T14:33:55.304Z,11.34
2019-03-03T14:36:23.904Z,11.25
2019-03-03T14:38:52.431Z,11.24
2019-03-03T14:41:21.118Z,11.17
2019-03-03T14:43:49.619Z,11.14
2019-03-03T14:46:18.180Z,11.13
2019-03-03T14:48:46.776Z,11.11
2019-03-03T14:51:15.387Z,11.10
2019-03-03T14:53:43.928Z,11.04
2019-03-03T14:56:12.614Z,10.94
2019-03-03T14:58:41.145Z,10.87
2019-03-03T15:01:09.795Z,10.83
2019-03-03T15:03:38.405Z,10.75
2019-03-03T15:06:06.949Z,10.64
2019-03-03T15:08:35.511Z,10.55
2019-03-03T15:11:04.151Z,10.50
2019-03-03T15:13:33.168Z,10.49
2019-03-03T15:16:01.853Z,10.46
2019-03-03T15:18:30.729Z,10.43
2019-03-03T15:20:59.588Z,10.46
2019-03-03T15:23:28.113Z,10.41
2019-03-03T15:25:56.810Z,10.35
2019-03-03T15:29:06.665Z,10.32
2019-03-03T15:31:37.957Z,10.22
2019-03-03T15:34:45.950Z,10.23
2019-03-03T15:42:59.872Z,10.05
2019-03-03T15:46:08.555Z,10.06
2019-03-03T15:48:37.149Z,10.04
2019-03-03T15:51:05.845Z,9.99
2019-03-03T15:53:34.392Z,9.98
2019-03-03T15:56:03.094Z,9.96
2019-03-03T15:58:31.681Z,9.96
2019-03-03T16:01:00.442Z,9.91
2019-03-03T16:03:29.057Z,9.90
2019-03-03T16:05:57.571Z,9.91
2019-03-03T16:08:26.266Z,9.84
2019-03-03T16:10:54.865Z,9.86
2019-03-03T16:13:23.887Z,9.84
2019-03-03T16:15:52.488Z,9.77
2019-03-03T16:18:21.077Z,9.82
2019-03-03T16:23:37.177Z,9.79
2019-03-03T16:26:25.113Z,9.81
2019-03-03T16:28:53.779Z,9.75
2019-03-03T16:31:22.346Z,9.71
2019-03-03T16:33:50.936Z,9.73
2019-03-03T16:53:33.073Z,9.61
2019-03-03T16:56:01.642Z,9.62
2019-03-03T16:58:30.301Z,9.62
2019-03-03T17:00:58.991Z,9.63
2019-03-03T17:03:27.574Z,9.61
2019-03-03T17:05:56.033Z,9.64
2019-03-03T17:08:24.970Z,9.65
2019-03-03T17:10:53.907Z,9.65
2019-03-03T17:13:22.530Z,9.61
2019-03-03T17:15:51.135Z,9.65
2019-03-03T17:18:19.709Z,9.64
2019-03-03T17:20:48.400Z,9.65
2019-03-03T17:23:17.141Z,9.67
2019-03-03T17:25:45.706Z,9.63
2019-03-03T17:28:14.404Z,9.64
2019-03-03T17:30:42.999Z,9.61
2019-03-03T17:33:11.625Z,9.60
2019-03-03T17:35:40.299Z,9.63
2019-03-03T17:38:08.934Z,9.64
2019-03-03T17:40:37.952Z,9.66
2019-03-03T17:43:09.541Z,9.66
2019-03-03T17:45:38.131Z,9.60
2019-03-03T17:48:06.777Z,9.62
2019-03-03T17:50:35.393Z,9.63
2019-03-03T17:53:04.010Z,9.59
2019-03-03T17:55:32.644Z,9.61
2019-03-03T17:58:01.392Z,9.65
2019-03-03T18:00:49.437Z,9.62
2019-03-03T18:03:18.057Z,9.63
2019-03-03T18:05:46.566Z,9.62
2019-03-03T18:08:15.186Z,9.64
2019-03-03T18:10:43.817Z,9.62
2019-03-03T18:13:12.332Z,9.63
2019-03-03T18:15:40.922Z,9.65
2019-03-03T18:18:09.578Z,9.68
2019-03-03T18:20:38.159Z,9.71
2019-03-03T18:23:06.867Z,9.69
2019-03-03T18:25:35.410Z,9.70
2019-03-03T18:28:04.039Z,9.70
2019-03-03T18:30:32.559Z,9.70
2019-03-03T18:33:01.174Z,9.71
2019-03-03T18:35:29.834Z,9.70
2019-03-03T18:37:58.491Z,9.71
2019-03-03T18:41:07.240Z,9.74
2019-03-03T18:43:36.021Z,9.71
2019-03-03T18:46:05.825Z,9.72
2019-03-03T18:48:35.051Z,9.72
2019-03-03T18:51:03.559Z,9.76
2019-03-03T18:53:32.167Z,9.76
2019-03-03T18:56:00.719Z,9.78
2019-03-03T18:58:29.301Z,9.75
2019-03-03T19:00:57.949Z,9.78
2019-03-03T19:03:26.546Z,9.79
2019-03-03T19:05:56.163Z,9.80
2019-03-03T19:08:25.526Z,9.79
2019-03-03T19:10:54.140Z,9.81
2019-03-03T19:13:22.763Z,9.82
2019-03-03T19:15:51.771Z,9.85
2019-03-03T19:18:20.435Z,9.86
2019-03-03T19:20:49.047Z,9.89
2019-03-03T19:23:17.683Z,9.90
2019-03-03T19:25:46.360Z,9.89
2019-03-03T19:28:14.950Z,9.89
2019-03-03T19:30:43.608Z,9.94
2019-03-03T19:33:51.084Z,9.92
2019-03-03T19:36:20.225Z,9.89
2019-03-03T19:39:08.255Z,9.90
2019-03-03T19:41:36.953Z,9.92
2019-03-03T19:44:05.599Z,9.91
2019-03-03T19:47:14.188Z,9.91
2019-03-03T19:49:42.789Z,9.92
2019-03-03T19:52:11.479Z,9.94
2019-03-03T19:57:32.217Z,9.92
2019-03-03T20:00:00.813Z,9.92
2019-03-03T20:02:38.193Z,9.92
2019-03-03T20:05:47.004Z,9.95
2019-03-03T20:08:15.678Z,9.95
2019-03-03T20:10:44.288Z,9.94
2019-03-03T20:13:12.821Z,9.93
2019-03-03T20:15:41.542Z,9.95
2019-03-03T20:18:50.151Z,9.97
2019-03-03T20:21:18.775Z,9.97
2019-03-03T20:23:47.453Z,10.01
2019-03-03T20:26:16.008Z,10.02
2019-03-03T20:28:44.553Z,10.04
2019-03-03T20:31:13.110Z,10.03
2019-03-03T20:33:41.673Z,10.03
2019-03-03T20:36:10.355Z,10.03
2019-03-03T20:38:38.952Z,10.07
2019-03-03T20:41:07.974Z,10.07
2019-03-03T20:51:56.578Z,10.13
2019-03-03T20:57:33.664Z,10.15
2019-03-03T21:00:02.332Z,10.17
2019-03-03T21:02:31.719Z,10.16
2019-03-03T21:07:51.649Z,10.22
2019-03-03T21:15:24.008Z,10.20
2019-03-03T21:17:52.648Z,10.22
2019-03-03T21:21:01.128Z,10.23
2019-03-03T21:23:29.698Z,10.24
2019-03-03T21:25:58.241Z,10.27
2019-03-03T21:28:26.949Z,10.29
2019-03-03T21:30:55.534Z,10.32
2019-03-03T21:33:24.871Z,10.32
2019-03-03T21:36:33.408Z,10.30
2019-03-03T21:39:01.962Z,10.33
2019-03-03T21:41:30.773Z,10.33
2019-03-03T21:49:30.626Z,10.32
2019-03-03T21:51:59.187Z,10.32
2019-03-03T21:54:28.407Z,10.33
2019-03-03T21:56:56.957Z,10.33
2019-03-03T21:59:25.625Z,10.33
2019-03-03T22:01:54.612Z,10.33
2019-03-03T22:04:23.186Z,10.32
2019-03-03T22:06:51.780Z,10.34
2019-03-03T22:09:20.770Z,10.33
2019-03-03T22:14:45.013Z,10.32
2019-03-03T22:17:13.983Z,10.30
2019-03-03T22:23:05.105Z,10.23
2019-03-03T22:28:04.706Z,10.19
2019-03-03T22:30:33.324Z,10.15
2019-03-03T22:33:02.002Z,10.13
2019-03-03T22:35:30.643Z,10.07
